Allenwood, Pennsylvania
Current Conditions -  °F | °C
As of 6:54 PM on Saturday 25 Oct 2014 (Local Time) from KIPT Reporting Station
Clear Clear  
Wind Chill: 63°   Ceiling: Unl
Heat Index: 63°   Visibility: 10mi
Dew Point: 47°   Wind: 8mph
Humidity: 56%   Direction: 270°W
Pressure: 29.64"   Gusts: NA
Location:  41.11°N, 76.9°W
Report Text: KIPT 252254Z 27007KT 10SM CLR 17/08 A2964 RMK AO2 SLP036 T01720083
Loading
Personal Weather Stations






























Interactive Weather Map New forecast layout! Learn more

10-Day Weather Forecast

Advertisements
Track Severe Weather on mobile